Mansehra Weather



Mansehra's Current Weather

Temprature 24.99o clear sky

clear sky

Rain: 0 %

Min Temprature24.99o
Max Temprature24.99o
Humidity78
Wind Speed0.96 m/h
Sun Rise05:26:57
Sun Set18:57:19
Current Time: 13-Aug-2020 19:00:48
Lat/Lon: 34.33, 73.2




Mansehra's Geo Location



Mansehra's Weather Forecast

Time Overall Temp Min Temp Max Temp Humidity Wind Speed Rain
13-Aug-2020 (Thu)
20:00:00 light rain 26.550 24.390 26.550 73 1.48 m/h 12 %
23:00:00 clear sky 24.660 23.580 24.660 77 1.68 m/h 0 %
14-Aug-2020 (Fri)
02:00:00 light rain 23.220 22.850 23.220 78 1.62 m/h 87 %
05:00:00 light rain 22.090 22.040 22.090 78 0.63 m/h 100 %
08:00:00 light rain 25.940 25.940 25.940 69 0.58 m/h 30 %
11:00:00 light rain 29.270 29.270 29.270 60 1.87 m/h 95 %
14:00:00 light rain 29.360 29.360 29.360 62 3.01 m/h 217 %
17:00:00 light rain 28.130 28.130 28.130 66 1.45 m/h 91 %
20:00:00 clear sky 23.960 23.960 23.960 80 0.82 m/h 0 %
23:00:00 light rain 23.460 23.460 23.460 80 1.41 m/h 14 %
15-Aug-2020 (Sat)
02:00:00 light rain 23.000 23.000 23.000 77 1.63 m/h 14 %
05:00:00 light rain 22.370 22.370 22.370 77 1.36 m/h 82 %
08:00:00 light rain 26.170 26.170 26.170 68 0.22 m/h 21 %
11:00:00 light rain 28.870 28.870 28.870 63 1.99 m/h 173 %
14:00:00 light rain 29.330 29.330 29.330 63 2.29 m/h 293 %
17:00:00 light rain 28.970 28.970 28.970 62 0.94 m/h 76 %
20:00:00 clear sky 24.540 24.540 24.540 76 1.4 m/h 0 %
23:00:00 clear sky 23.810 23.810 23.810 76 1.42 m/h 0 %
16-Aug-2020 (Sun)
02:00:00 clear sky 23.370 23.370 23.370 74 1.72 m/h 0 %
05:00:00 clear sky 22.920 22.920 22.920 73 0.81 m/h 0 %
08:00:00 few clouds 26.710 26.710 26.710 67 0.23 m/h 0 %
11:00:00 light rain 29.800 29.800 29.800 61 2.06 m/h 32 %
14:00:00 light rain 29.880 29.880 29.880 66 2.98 m/h 76 %
17:00:00 light rain 29.170 29.170 29.170 69 1.9 m/h 66 %
20:00:00 light rain 25.190 25.190 25.190 82 0.7 m/h 22 %
23:00:00 clear sky 24.520 24.520 24.520 83 1.32 m/h 0 %
17-Aug-2020 (Mon)
02:00:00 light rain 24.190 24.190 24.190 80 0.51 m/h 21 %
05:00:00 light rain 23.830 23.830 23.830 80 0.69 m/h 53 %
08:00:00 light rain 27.020 27.020 27.020 75 0.44 m/h 162 %
11:00:00 moderate rain 29.050 29.050 29.050 67 2.27 m/h 353 %
14:00:00 moderate rain 29.680 29.680 29.680 66 2.67 m/h 372 %
17:00:00 moderate rain 28.730 28.730 28.730 69 1.09 m/h 370 %
20:00:00 clear sky 24.970 24.970 24.970 80 0.99 m/h 0 %
23:00:00 clear sky 24.150 24.150 24.150 81 1.33 m/h 0 %
18-Aug-2020 (Tue)
02:00:00 clear sky 23.520 23.520 23.520 80 1.51 m/h 0 %
05:00:00 moderate rain 23.130 23.130 23.130 83 0.79 m/h 601 %
08:00:00 heavy intensity rain 24.370 24.370 24.370 82 1.38 m/h 1,209 %
11:00:00 moderate rain 27.790 27.790 27.790 69 0.48 m/h 343 %
14:00:00 moderate rain 29.200 29.200 29.200 66 2.25 m/h 603 %
17:00:00 light rain 28.380 28.380 28.380 70 0.69 m/h 295 %

Famous Cities (60)